Home PIREPS Pireps

Flight BEL12243TR

  • Submitted By: AndrĂ© Vincent
  • Departure Airport: Larnaka International Airport (LCLK)
  • Arrival Airport: Lisboa / Portela (LPPT)
  • Aircraft: YOUR CHOICE (YC)
  • Flight Time: 04.53
  • Date Submitted: 27/11/2017
  • Status: Accepted
Flight Details
Gross Revenue:
(25 load / € 0.00 per unit
€ 0.00
Fuel Cost:
(20823 fuel used @ 5.1 / unit)
€ 106,197.30

Additional Log Information:

View Log

Aircraft Used in flight is Boeing 737-800 sabena paint
05:01 Brakes are On
05:03 Brakes are Released
05:04 You Took off @ 178 Knots and Flaps at Position 2
Departure Weather
LCLK 270330Z 31005KT CAVOK 14/08 Q1020 NOSIGrn
05:04 Landing Gear Up @ 187 Knots and 90 Feet
05:05 You exceeded maximum bank angle
09:50 Landing Gear Down @ 121 Knots and 20 Feet
09:50 You Landed @ 121 Knots and with -200 Vertical Speed
Arrival Weather
LPPT 270830Z 07009KT CAVOK 12/04 Q1026rn
09:54 Brakes are On
09:54 Brussels Bel-Track1.0.1.2

Route Map

Corporate About Us Our Team Vacancies Information Fleet Route Network Rules and Regulations Operations Flight Schedules Event Center Tours Partners IVAO Vatsim Acars dev FSCB

fb Users Online No pilots online!
0 Pilot(s) and 105 Guest(s) Online
CMS by phpVMS - Design by Crazycreatives.com - Copyright © 2018 - Brussels Airlines Virtual